createdAt,value
2023-04-09T00:00:15.779Z,97604.97
2023-04-09T00:02:42.614Z,97596.09
2023-04-09T00:05:09.212Z,97596.47
2023-04-09T00:07:35.646Z,97594.88
2023-04-09T00:10:02.241Z,97592.81
2023-04-09T00:12:30.249Z,97597.06
2023-04-09T00:14:57.375Z,97600.50
2023-04-09T00:17:23.778Z,97597.69
2023-04-09T00:19:50.213Z,97592.00
2023-04-09T00:22:16.843Z,97595.06
2023-04-09T00:24:43.234Z,97595.63
2023-04-09T00:27:09.597Z,97592.00
2023-04-09T00:29:35.940Z,97586.38
2023-04-09T00:32:02.482Z,97583.94
2023-04-09T00:34:29.022Z,97588.19
2023-04-09T00:36:55.679Z,97581.50
2023-04-09T00:39:22.076Z,97584.38
2023-04-09T00:41:48.522Z,97590.03
2023-04-09T00:44:15.108Z,97584.75
2023-04-09T00:46:41.668Z,97583.97
2023-04-09T00:49:08.035Z,97583.38
2023-04-09T00:51:35.793Z,97586.81
2023-04-09T00:54:02.242Z,97584.78
2023-04-09T00:56:29.840Z,97586.41
2023-04-09T00:58:56.284Z,97575.72
2023-04-09T01:01:22.760Z,97584.59
2023-04-09T01:03:49.354Z,97592.91
2023-04-09T01:06:27.830Z,97586.84
2023-04-09T01:09:08.799Z,97588.47
2023-04-09T01:11:44.918Z,97590.28
2023-04-09T01:14:37.779Z,97586.84
2023-04-09T01:17:15.398Z,97579.97
2023-04-09T01:19:51.139Z,97582.41
2023-04-09T01:22:31.611Z,97588.84
2023-04-09T01:25:24.126Z,97575.72
2023-04-09T01:28:18.173Z,97576.72
2023-04-09T01:30:49.088Z,97590.09
2023-04-09T01:33:17.558Z,97585.22
2023-04-09T01:35:46.323Z,97579.97
2023-04-09T01:38:14.241Z,97588.66
2023-04-09T01:40:40.823Z,97580.19
2023-04-09T01:43:08.697Z,97596.56
2023-04-09T01:45:34.995Z,97584.44
2023-04-09T01:48:03.313Z,97584.44
2023-04-09T01:50:29.813Z,97589.69
2023-04-09T01:52:56.745Z,97593.13
2023-04-09T01:55:23.164Z,97589.69
2023-04-09T01:57:49.592Z,97588.28
2023-04-09T02:00:16.502Z,97593.53
2023-04-09T02:02:53.331Z,97592.94
2023-04-09T02:05:23.114Z,97596.75
2023-04-09T02:07:55.840Z,97596.34
2023-04-09T02:10:27.038Z,97594.75
2023-04-09T02:12:54.904Z,97596.16
2023-04-09T02:15:22.223Z,97593.34
2023-04-09T02:17:48.717Z,97591.34
2023-04-09T02:20:19.173Z,97583.69
2023-04-09T02:22:46.580Z,97572.38
2023-04-09T02:25:13.037Z,97585.50
2023-04-09T02:27:39.584Z,97577.66
2023-04-09T02:30:06.620Z,97574.41
2023-04-09T02:32:33.096Z,97572.59
2023-04-09T02:34:59.590Z,97576.63
2023-04-09T02:37:26.111Z,97579.25
2023-04-09T02:39:52.653Z,97578.44
2023-04-09T02:42:19.100Z,97579.25
2023-04-09T02:44:45.477Z,97583.28
2023-04-09T02:47:11.913Z,97581.66
2023-04-09T02:49:38.394Z,97576.81
2023-04-09T02:52:04.931Z,97579.25
2023-04-09T02:54:31.390Z,97578.03
2023-04-09T02:56:57.894Z,97578.84
2023-04-09T02:59:24.333Z,97579.66
2023-04-09T03:01:50.843Z,97582.28
2023-04-09T03:04:17.309Z,97579.06
2023-04-09T03:06:43.996Z,97583.69
2023-04-09T03:09:10.437Z,97574.41
2023-04-09T03:11:36.809Z,97574.59
2023-04-09T03:14:03.228Z,97564.34
2023-04-09T03:16:29.826Z,97566.72
2023-04-09T03:18:56.196Z,97571.59
2023-04-09T03:21:22.646Z,97566.53
2023-04-09T03:23:49.049Z,97564.34
2023-04-09T03:26:15.440Z,97561.50
2023-04-09T03:28:41.811Z,97559.47
2023-04-09T03:31:08.240Z,97559.88
2023-04-09T03:33:34.692Z,97554.84
2023-04-09T03:36:01.186Z,97557.84
2023-04-09T03:38:27.623Z,97556.66
2023-04-09T03:40:53.990Z,97559.09
2023-04-09T03:43:20.426Z,97554.03
2023-04-09T03:45:46.834Z,97559.69
2023-04-09T03:48:13.223Z,97556.66
2023-04-09T03:50:40.827Z,97553.03
2023-04-09T03:53:07.509Z,97563.53
2023-04-09T03:55:34.212Z,97560.28
2023-04-09T03:58:00.898Z,97557.84
2023-04-09T04:00:27.393Z,97559.91
2023-04-09T04:02:53.887Z,97558.28
2023-04-09T04:05:24.179Z,97559.09
2023-04-09T04:07:50.538Z,97560.28
2023-04-09T04:10:16.984Z,97558.47
2023-04-09T04:12:43.351Z,97555.03
2023-04-09T04:15:10.119Z,97564.34
2023-04-09T04:17:36.506Z,97561.72
2023-04-09T04:20:03.097Z,97555.84
2023-04-09T04:22:29.552Z,97565.13
2023-04-09T04:24:56.098Z,97567.16
2023-04-09T04:27:22.477Z,97567.34
2023-04-09T04:29:48.863Z,97572.78
2023-04-09T04:32:15.433Z,97572.78
2023-04-09T04:34:41.852Z,97569.97
2023-04-09T04:37:08.628Z,97567.75
2023-04-09T04:39:35.012Z,97574.81
2023-04-09T04:42:01.466Z,97571.59
2023-04-09T04:44:27.998Z,97574.59
2023-04-09T04:46:54.444Z,97567.13
2023-04-09T04:49:20.827Z,97572.78
2023-04-09T04:51:47.294Z,97568.16
2023-04-09T04:54:13.783Z,97578.84
2023-04-09T04:56:40.303Z,97577.66
2023-04-09T04:59:06.843Z,97582.88
2023-04-09T05:01:33.413Z,97578.84
2023-04-09T05:04:00.242Z,97583.31
2023-04-09T05:06:28.001Z,97586.13
2023-04-09T05:08:57.951Z,97586.31
2023-04-09T05:11:25.388Z,97588.56
2023-04-09T05:13:51.887Z,97582.06
2023-04-09T05:16:19.630Z,97585.31
2023-04-09T05:18:46.593Z,97588.94
2023-04-09T05:21:13.224Z,97586.53
2023-04-09T05:23:39.633Z,97583.28
2023-04-09T05:26:06.022Z,97594.59
2023-04-09T05:28:32.907Z,97589.75
2023-04-09T05:30:59.683Z,97587.72
2023-04-09T05:33:26.271Z,97590.13
2023-04-09T05:35:52.750Z,97592.16
2023-04-09T05:38:19.176Z,97594.56
2023-04-09T05:40:45.806Z,97600.63
2023-04-09T05:43:12.252Z,97594.13
2023-04-09T05:45:38.901Z,97600.59
2023-04-09T05:48:05.895Z,97592.09
2023-04-09T05:50:38.181Z,97596.16
2023-04-09T05:53:14.147Z,97586.41
2023-04-09T05:55:40.580Z,97589.66
2023-04-09T05:58:06.977Z,97593.28
2023-04-09T06:00:33.617Z,97593.63
2023-04-09T06:03:00.151Z,97597.22
2023-04-09T06:05:26.698Z,97598.75
2023-04-09T06:07:53.047Z,97599.50
2023-04-09T06:10:19.510Z,97595.41
2023-04-09T06:12:45.957Z,97592.56
2023-04-09T06:15:12.280Z,97590.03
2023-04-09T06:17:38.802Z,97594.19
2023-04-09T06:20:06.214Z,97591.31
2023-04-09T06:22:32.682Z,97586.00
2023-04-09T06:24:59.829Z,97592.31
2023-04-09T06:27:26.579Z,97577.38
2023-04-09T06:29:53.022Z,97590.28
2023-04-09T06:32:19.402Z,97584.53
2023-04-09T06:34:45.867Z,97582.13
2023-04-09T06:37:12.532Z,97581.59
2023-04-09T06:39:44.815Z,97590.66
2023-04-09T06:42:20.636Z,97591.88
2023-04-09T06:44:47.523Z,97591.28
2023-04-09T06:47:13.876Z,97594.47
2023-04-09T06:49:40.396Z,97598.94
2023-04-09T06:52:07.352Z,97605.13
2023-04-09T06:54:33.766Z,97606.63
2023-04-09T06:57:00.206Z,97608.84
2023-04-09T06:59:26.709Z,97606.69
2023-04-09T07:01:54.661Z,97614.78
2023-04-09T07:04:21.562Z,97612.38
2023-04-09T07:06:48.042Z,97607.63
2023-04-09T07:09:15.348Z,97609.19
2023-04-09T07:11:41.836Z,97613.78
2023-04-09T07:14:08.231Z,97611.81
2023-04-09T07:16:34.718Z,97610.88
2023-04-09T07:19:01.429Z,97612.66
2023-04-09T07:21:28.263Z,97618.03
2023-04-09T07:23:54.996Z,97612.75
2023-04-09T07:26:21.689Z,97616.41
2023-04-09T07:28:48.097Z,97614.06
2023-04-09T07:31:14.467Z,97615.72
2023-04-09T07:33:40.900Z,97613.97
2023-04-09T07:36:07.298Z,97622.53
2023-04-09T07:38:34.784Z,97625.28
2023-04-09T07:41:01.396Z,97623.66
2023-04-09T07:43:27.921Z,97628.16
2023-04-09T07:45:54.536Z,97626.31
2023-04-09T07:48:21.185Z,97630.03
2023-04-09T07:50:48.261Z,97635.84
2023-04-09T07:53:14.699Z,97633.94
2023-04-09T07:55:41.328Z,97631.56
2023-04-09T07:58:07.687Z,97618.03
2023-04-09T08:00:34.130Z,97618.03
2023-04-09T08:03:01.810Z,97621.88
2023-04-09T08:05:28.882Z,97623.09
2023-04-09T08:07:55.414Z,97620.22
2023-04-09T08:10:22.070Z,97619.91
2023-04-09T08:12:49.192Z,97626.31
2023-04-09T08:15:16.009Z,97627.63
2023-04-09T08:17:42.453Z,97625.06
2023-04-09T08:20:09.346Z,97626.59
2023-04-09T08:22:35.797Z,97630.66
2023-04-09T08:25:02.891Z,97625.75
2023-04-09T08:27:29.594Z,97637.81
2023-04-09T08:29:56.065Z,97628.03
2023-04-09T08:32:22.644Z,97638.13
2023-04-09T08:34:49.214Z,97639.53
2023-04-09T08:37:16.693Z,97644.72
2023-04-09T08:39:43.096Z,97636.44
2023-04-09T08:42:12.476Z,97633.41
2023-04-09T08:44:38.955Z,97642.28
2023-04-09T08:47:10.132Z,97644.06
2023-04-09T08:49:36.651Z,97650.41
2023-04-09T08:52:03.442Z,97642.66
2023-04-09T08:54:30.059Z,97647.78
2023-04-09T08:56:57.547Z,97649.91
2023-04-09T08:59:23.980Z,97647.78
2023-04-09T09:02:06.832Z,97656.41
2023-04-09T09:04:47.792Z,97650.84
2023-04-09T09:07:15.555Z,97651.41
2023-04-09T09:09:59.216Z,97654.06
2023-04-09T09:12:41.093Z,97659.31
2023-04-09T09:15:27.770Z,97656.00
2023-04-09T09:17:59.205Z,97656.66
2023-04-09T09:20:27.168Z,97655.94
2023-04-09T09:22:56.517Z,97653.22
2023-04-09T09:25:24.792Z,97654.09
2023-04-09T09:27:52.270Z,97658.47
2023-04-09T09:30:27.167Z,97658.34
2023-04-09T09:32:55.352Z,97647.66
2023-04-09T09:35:22.288Z,97655.38
2023-04-09T09:38:01.211Z,97660.19
2023-04-09T09:40:28.757Z,97651.91
2023-04-09T09:42:56.993Z,97658.91
2023-04-09T09:45:24.437Z,97652.53
2023-04-09T09:47:52.891Z,97649.66
2023-04-09T09:50:24.026Z,97660.53
2023-04-09T09:52:53.207Z,97653.75
2023-04-09T09:55:23.128Z,97661.44
2023-04-09T09:57:51.591Z,97652.38
2023-04-09T10:00:19.399Z,97653.53
2023-04-09T10:02:56.639Z,97652.41
2023-04-09T10:05:26.785Z,97652.34
2023-04-09T10:07:57.865Z,97653.63
2023-04-09T10:10:25.939Z,97653.19
2023-04-09T10:12:52.711Z,97654.38
2023-04-09T10:15:19.781Z,97649.06
2023-04-09T10:17:46.620Z,97662.44
2023-04-09T10:20:22.803Z,97663.19
2023-04-09T10:22:51.748Z,97666.94
2023-04-09T10:25:18.416Z,97672.91
2023-04-09T10:27:46.181Z,97670.94
2023-04-09T10:30:35.671Z,97668.91
2023-04-09T10:33:10.204Z,97660.75
2023-04-09T10:35:37.172Z,97663.00
2023-04-09T10:38:03.629Z,97663.53
2023-04-09T10:40:30.258Z,97664.28
2023-04-09T10:42:58.184Z,97662.75
2023-04-09T10:45:26.217Z,97661.97
2023-04-09T10:47:53.549Z,97663.06
2023-04-09T10:50:32.612Z,97659.88
2023-04-09T10:53:00.607Z,97657.94
2023-04-09T10:55:38.097Z,97641.00
2023-04-09T10:58:11.935Z,97652.59
2023-04-09T11:00:44.153Z,97640.78
2023-04-09T11:03:30.479Z,97631.66
2023-04-09T11:06:01.746Z,97636.59
2023-04-09T11:08:30.332Z,97634.19
2023-04-09T11:10:58.477Z,97644.41
2023-04-09T11:13:25.053Z,97642.28
2023-04-09T11:15:51.565Z,97646.25
2023-04-09T11:18:24.924Z,97642.69
2023-04-09T11:20:59.446Z,97641.91
2023-04-09T11:23:26.926Z,97645.88
2023-04-09T11:25:54.102Z,97640.59
2023-04-09T11:28:20.998Z,97636.97
2023-04-09T11:30:49.993Z,97631.03
2023-04-09T11:33:19.150Z,97631.63
2023-04-09T11:35:46.546Z,97634.47
2023-04-09T11:38:13.116Z,97624.09
2023-04-09T11:40:48.091Z,97631.13
2023-04-09T11:43:20.992Z,97633.38
2023-04-09T11:45:48.540Z,97631.56
2023-04-09T11:48:18.134Z,97628.66
2023-04-09T11:50:44.770Z,97627.84
2023-04-09T11:53:21.998Z,97621.59
2023-04-09T11:55:51.505Z,97615.53
2023-04-09T11:58:18.308Z,97620.78
2023-04-09T12:00:45.486Z,97620.06
2023-04-09T12:03:12.277Z,97619.19
2023-04-09T12:05:40.669Z,97619.09
2023-04-09T12:08:08.821Z,97617.13
2023-04-09T12:10:37.511Z,97623.19
2023-04-09T12:13:06.966Z,97615.50
2023-04-09T12:15:34.971Z,97621.19
2023-04-09T12:18:01.860Z,97619.16
2023-04-09T12:20:39.625Z,97606.00
2023-04-09T12:23:07.296Z,97615.41
2023-04-09T12:25:39.169Z,97622.38
2023-04-09T12:28:07.286Z,97620.25
2023-04-09T12:30:34.329Z,97611.38
2023-04-09T12:33:01.447Z,97600.75
2023-04-09T12:35:28.308Z,97603.16
2023-04-09T12:37:54.829Z,97602.19
2023-04-09T12:40:21.536Z,97599.91
2023-04-09T12:42:48.332Z,97596.38
2023-04-09T12:45:16.566Z,97601.25
2023-04-09T12:47:43.769Z,97591.66
2023-04-09T12:50:11.707Z,97599.13
2023-04-09T12:52:38.570Z,97586.31
2023-04-09T12:55:06.241Z,97591.91
2023-04-09T12:57:33.009Z,97585.94
2023-04-09T13:00:00.175Z,97584.59
2023-04-09T13:02:26.905Z,97580.38
2023-04-09T13:04:53.698Z,97573.69
2023-04-09T13:07:20.545Z,97582.31
2023-04-09T13:09:48.913Z,97575.25
2023-04-09T13:12:16.228Z,97573.69
2023-04-09T13:14:46.708Z,97566.16
2023-04-09T13:17:13.434Z,97562.88
2023-04-09T13:19:42.136Z,97565.50
2023-04-09T13:22:09.416Z,97559.88
2023-04-09T13:24:36.491Z,97559.13
2023-04-09T13:27:07.000Z,97548.59
2023-04-09T13:29:33.430Z,97548.50
2023-04-09T13:32:02.719Z,97550.06
2023-04-09T13:34:29.260Z,97550.84
2023-04-09T13:36:55.760Z,97542.84
2023-04-09T13:39:22.177Z,97545.19
2023-04-09T13:41:48.719Z,97541.16
2023-04-09T13:44:15.577Z,97535.78
2023-04-09T13:46:42.139Z,97540.38
2023-04-09T13:49:08.764Z,97538.03
2023-04-09T13:51:35.202Z,97531.47
2023-04-09T13:54:02.790Z,97534.66
2023-04-09T13:56:31.318Z,97530.81
2023-04-09T13:58:57.922Z,97528.63
2023-04-09T14:01:26.193Z,97528.34
2023-04-09T14:03:52.948Z,97525.22
2023-04-09T14:06:19.769Z,97526.81
2023-04-09T14:08:46.165Z,97515.78
2023-04-09T14:11:14.964Z,97516.38
2023-04-09T14:13:41.735Z,97521.72
2023-04-09T14:16:09.130Z,97506.03
2023-04-09T14:18:35.642Z,97504.63
2023-04-09T14:21:02.171Z,97511.31
2023-04-09T14:23:28.561Z,97507.03
2023-04-09T14:25:54.987Z,97500.78
2023-04-09T14:28:21.470Z,97507.03
2023-04-09T14:30:48.456Z,97495.84
2023-04-09T14:33:14.956Z,97494.50
2023-04-09T14:35:41.371Z,97502.59
2023-04-09T14:38:09.899Z,97505.72
2023-04-09T14:40:36.600Z,97503.06
2023-04-09T14:43:03.193Z,97503.66
2023-04-09T14:45:30.869Z,97494.06
2023-04-09T14:47:57.546Z,97497.34
2023-04-09T14:50:24.109Z,97492.50
2023-04-09T14:52:50.718Z,97485.22
2023-04-09T14:55:17.169Z,97489.41
2023-04-09T14:57:43.681Z,97498.38
2023-04-09T15:00:11.965Z,97490.56
2023-04-09T15:02:38.691Z,97489.84
2023-04-09T15:05:05.753Z,97486.63
2023-04-09T15:07:32.210Z,97493.03
2023-04-09T15:10:01.827Z,97491.59
2023-04-09T15:12:30.351Z,97495.75
2023-04-09T15:14:57.374Z,97489.94
2023-04-09T15:17:24.497Z,97485.19
2023-04-09T15:19:52.957Z,97481.22
2023-04-09T15:22:19.925Z,97497.53
2023-04-09T15:24:46.370Z,97492.19
2023-04-09T15:27:12.813Z,97501.41
2023-04-09T15:29:39.261Z,97499.59
2023-04-09T15:32:05.979Z,97486.44
2023-04-09T15:34:32.776Z,97484.97
2023-04-09T15:36:59.291Z,97490.84
2023-04-09T15:39:28.302Z,97485.47
2023-04-09T15:41:58.609Z,97488.66
2023-04-09T15:44:25.994Z,97477.88
2023-04-09T15:46:52.536Z,97482.50
2023-04-09T15:49:19.667Z,97488.53
2023-04-09T15:51:46.487Z,97481.94
2023-04-09T15:54:13.050Z,97474.84
2023-04-09T15:56:40.410Z,97481.47
2023-04-09T15:59:08.317Z,97484.34
2023-04-09T16:01:36.282Z,97490.13
2023-04-09T16:04:03.930Z,97480.34
2023-04-09T16:06:30.489Z,97477.44
2023-04-09T16:08:57.135Z,97484.38
2023-04-09T16:11:23.755Z,97475.56
2023-04-09T16:13:50.540Z,97481.41
2023-04-09T16:16:17.078Z,97477.91
2023-04-09T16:18:43.708Z,97481.22
2023-04-09T16:21:10.504Z,97484.06
2023-04-09T16:23:37.089Z,97487.13
2023-04-09T16:26:03.828Z,97475.28
2023-04-09T16:28:30.451Z,97474.41
2023-04-09T16:30:57.063Z,97484.28
2023-04-09T16:33:23.807Z,97481.78
2023-04-09T16:35:50.378Z,97482.41
2023-04-09T16:38:16.830Z,97485.16
2023-04-09T16:40:43.920Z,97482.13
2023-04-09T16:43:10.354Z,97472.06
2023-04-09T16:45:37.049Z,97479.09
2023-04-09T16:48:06.171Z,97481.56
2023-04-09T16:50:32.909Z,97485.31
2023-04-09T16:53:01.010Z,97477.84
2023-04-09T16:55:27.500Z,97481.69
2023-04-09T16:57:55.935Z,97487.13
2023-04-09T17:00:22.667Z,97488.41
2023-04-09T17:02:49.611Z,97481.84
2023-04-09T17:05:17.879Z,97492.31
2023-04-09T17:07:44.550Z,97482.88
2023-04-09T17:10:11.484Z,97485.09
2023-04-09T17:12:38.180Z,97482.53
2023-04-09T17:15:04.989Z,97479.72
2023-04-09T17:17:31.451Z,97481.41
2023-04-09T17:19:59.898Z,97471.41
2023-04-09T17:22:26.307Z,97473.28
2023-04-09T17:24:52.846Z,97477.53
2023-04-09T17:27:19.690Z,97482.53
2023-04-09T17:29:46.146Z,97476.03
2023-04-09T17:32:12.542Z,97477.31
2023-04-09T17:34:38.998Z,97486.75
2023-04-09T17:37:05.387Z,97480.75
2023-04-09T17:39:31.846Z,97482.59
2023-04-09T17:42:00.549Z,97478.75
2023-04-09T17:44:27.046Z,97480.66
2023-04-09T17:46:53.885Z,97490.16
2023-04-09T17:49:22.335Z,97494.72
2023-04-09T17:51:48.948Z,97495.38
2023-04-09T17:54:15.455Z,97499.16
2023-04-09T17:56:41.902Z,97502.09
2023-04-09T17:59:08.362Z,97503.75
2023-04-09T18:01:34.986Z,97502.72
2023-04-09T18:04:02.068Z,97508.81
2023-04-09T18:06:29.229Z,97519.25
2023-04-09T18:08:55.844Z,97516.47
2023-04-09T18:11:23.543Z,97515.69
2023-04-09T18:13:51.113Z,97522.22
2023-04-09T18:16:19.410Z,97526.47
2023-04-09T18:18:46.124Z,97524.06
2023-04-09T18:21:12.534Z,97527.50
2023-04-09T18:23:40.351Z,97534.84
2023-04-09T18:26:07.763Z,97531.41
2023-04-09T18:28:35.084Z,97540.94
2023-04-09T18:31:02.021Z,97540.38
2023-04-09T18:33:28.548Z,97548.53
2023-04-09T18:35:55.156Z,97548.97
2023-04-09T18:38:21.755Z,97553.13
2023-04-09T18:40:48.213Z,97548.97
2023-04-09T18:43:14.644Z,97558.06
2023-04-09T18:45:41.335Z,97557.00
2023-04-09T18:48:08.905Z,97567.81
2023-04-09T18:50:36.100Z,97572.59
2023-04-09T18:53:03.651Z,97565.06
2023-04-09T18:55:30.749Z,97564.00
2023-04-09T18:57:57.457Z,97567.81
2023-04-09T19:00:24.088Z,97568.72
2023-04-09T19:02:50.800Z,97573.81
2023-04-09T19:05:17.494Z,97571.19
2023-04-09T19:07:43.926Z,97579.81
2023-04-09T19:10:10.807Z,97573.72
2023-04-09T19:12:37.766Z,97578.09
2023-04-09T19:15:04.955Z,97581.16
2023-04-09T19:17:32.191Z,97582.66
2023-04-09T19:19:58.681Z,97574.00
2023-04-09T19:22:25.173Z,97582.47
2023-04-09T19:24:51.710Z,97584.09
2023-04-09T19:27:18.647Z,97582.78
2023-04-09T19:29:46.584Z,97587.75
2023-04-09T19:32:13.320Z,97588.34
2023-04-09T19:34:39.814Z,97586.66
2023-04-09T19:37:06.625Z,97587.47
2023-04-09T19:39:33.141Z,97589.22
2023-04-09T19:41:59.540Z,97586.75
2023-04-09T19:44:26.095Z,97589.53
2023-04-09T19:46:52.808Z,97595.84
2023-04-09T19:49:19.470Z,97586.97
2023-04-09T19:51:45.799Z,97588.13
2023-04-09T19:54:12.267Z,97587.75
2023-04-09T19:56:38.891Z,97592.31
2023-04-09T19:59:05.413Z,97588.94
2023-04-09T20:01:32.425Z,97593.19
2023-04-09T20:03:59.350Z,97593.47
2023-04-09T20:06:27.091Z,97592.31
2023-04-09T20:08:54.262Z,97586.31
2023-04-09T20:11:21.222Z,97594.75
2023-04-09T20:13:48.004Z,97586.88
2023-04-09T20:16:15.366Z,97594.94
2023-04-09T20:18:41.770Z,97593.91
2023-04-09T20:21:08.765Z,97593.34
2023-04-09T20:23:35.410Z,97584.19
2023-04-09T20:26:02.652Z,97588.28
2023-04-09T20:28:29.692Z,97595.34
2023-04-09T20:30:56.594Z,97590.97
2023-04-09T20:33:23.142Z,97593.03
2023-04-09T20:35:50.356Z,97594.16
2023-04-09T20:38:20.461Z,97601.19
2023-04-09T20:40:47.187Z,97595.19
2023-04-09T20:43:13.788Z,97598.09
2023-04-09T20:45:40.257Z,97596.06
2023-04-09T20:48:06.780Z,97601.81
2023-04-09T20:50:33.293Z,97598.81
2023-04-09T20:52:59.687Z,97595.34
2023-04-09T20:55:26.337Z,97595.13
2023-04-09T20:57:56.420Z,97596.88
2023-04-09T21:00:23.078Z,97592.66
2023-04-09T21:02:49.842Z,97594.34
2023-04-09T21:05:23.981Z,97598.50
2023-04-09T21:07:52.339Z,97590.31
2023-04-09T21:10:18.795Z,97587.19
2023-04-09T21:12:45.233Z,97587.19
2023-04-09T21:15:11.604Z,97581.66
2023-04-09T21:17:38.135Z,97590.59
2023-04-09T21:20:04.963Z,97577.53
2023-04-09T21:22:31.941Z,97583.22
2023-04-09T21:24:58.372Z,97582.09
2023-04-09T21:27:24.784Z,97577.63
2023-04-09T21:29:51.214Z,97573.56
2023-04-09T21:32:17.645Z,97574.81
2023-04-09T21:34:44.120Z,97574.97
2023-04-09T21:37:10.995Z,97569.41
2023-04-09T21:39:38.531Z,97577.44
2023-04-09T21:42:06.355Z,97561.94
2023-04-09T21:44:33.701Z,97568.28
2023-04-09T21:47:01.483Z,97564.41
2023-04-09T21:49:27.815Z,97567.59
2023-04-09T21:51:55.633Z,97573.06
2023-04-09T21:54:21.954Z,97577.72
2023-04-09T21:56:48.428Z,97571.06
2023-04-09T21:59:14.857Z,97573.59
2023-04-09T22:01:41.271Z,97570.38
2023-04-09T22:04:07.823Z,97566.13
2023-04-09T22:06:34.318Z,97569.03
2023-04-09T22:09:01.693Z,97567.88
2023-04-09T22:11:28.781Z,97572.88
2023-04-09T22:13:58.589Z,97573.31
2023-04-09T22:16:26.131Z,97574.91
2023-04-09T22:18:53.886Z,97576.97
2023-04-09T22:21:20.751Z,97577.38
2023-04-09T22:23:47.393Z,97578.47
2023-04-09T22:26:13.853Z,97571.88
2023-04-09T22:28:40.342Z,97569.44
2023-04-09T22:31:07.106Z,97570.63
2023-04-09T22:33:33.606Z,97564.63
2023-04-09T22:36:00.218Z,97561.78
2023-04-09T22:38:26.967Z,97554.91
2023-04-09T22:40:53.666Z,97551.56
2023-04-09T22:43:20.085Z,97553.19
2023-04-09T22:46:04.906Z,97545.94
2023-04-09T22:48:33.884Z,97543.19
2023-04-09T22:51:00.543Z,97537.13
2023-04-09T22:53:26.958Z,97539.53
2023-04-09T22:55:54.739Z,97538.31
2023-04-09T22:58:21.207Z,97534.84
2023-04-09T23:00:47.705Z,97535.09
2023-04-09T23:03:14.536Z,97529.84
2023-04-09T23:05:41.388Z,97529.88
2023-04-09T23:08:07.818Z,97528.88
2023-04-09T23:10:34.453Z,97518.19
2023-04-09T23:13:01.085Z,97525.66
2023-04-09T23:15:28.344Z,97535.16
2023-04-09T23:17:54.981Z,97535.59
2023-04-09T23:20:21.562Z,97533.81
2023-04-09T23:22:48.640Z,97537.63
2023-04-09T23:25:16.336Z,97535.88
2023-04-09T23:27:42.795Z,97541.69
2023-04-09T23:30:10.261Z,97544.34
2023-04-09T23:32:36.925Z,97541.72
2023-04-09T23:35:04.144Z,97544.16
2023-04-09T23:37:31.043Z,97538.50
2023-04-09T23:39:57.450Z,97544.97
2023-04-09T23:42:24.015Z,97532.03
2023-04-09T23:44:50.474Z,97525.97
2023-04-09T23:47:17.347Z,97534.88
2023-04-09T23:49:43.896Z,97534.84
2023-04-09T23:52:10.513Z,97529.97
2023-04-09T23:54:36.965Z,97530.00
2023-04-09T23:57:03.654Z,97532.00
2023-04-09T23:59:33.790Z,97534.78
